Terminal Aerodrome Forecast
Issued by NWS

Home | Current Version | Previous Version | Text Only | Print | Product List | Glossary Off
Versions: 1 2 3 4 5 6 7 8 9 10 11 12 13 14 15 16 17

000
FTUS43 KGRB 171323 AAA
TAFCWA
TAF AMD
KCWA 171323Z 1713/1812 19009G15KT P6SM VCSH SCT012 BKN025
      TEMPO 1713/1715 BKN012
     FM171500 18009G15KT P6SM VCSH BKN015 OVC025
      TEMPO 1716/1719 5SM -SHRA BR BKN009
     FM172000 22010G15KT P6SM VCSH OVC015
     FM172200 24010G15KT P6SM VCSH OVC010
     FM180000 27010KT P6SM OVC012
     FM180600 30009KT P6SM OVC005=

USA.gov is the U.S. government's official web portal to all federal, state and local government web resources and services.